sensor_id;sensor_type;location;lat;lon;timestamp;pressure;altitude;pressure_sealevel;temperature;humidity
44148;BME280;29810;55.848;37.368;2023-06-24T00:02:40;98436.91;;;16.59;98.90
44148;BME280;29810;55.848;37.368;2023-06-24T00:05:45;98449.31;;;16.56;98.92
44148;BME280;29810;55.848;37.368;2023-06-24T00:08:50;98446.94;;;16.53;99.22
44148;BME280;29810;55.848;37.368;2023-06-24T00:11:51;98443.66;;;16.50;99.69
44148;BME280;29810;55.848;37.368;2023-06-24T00:14:53;98454.75;;;16.42;100.00
44148;BME280;29810;55.848;37.368;2023-06-24T00:17:55;98450.91;;;16.35;100.00
44148;BME280;29810;55.848;37.368;2023-06-24T00:21:06;98450.59;;;16.27;100.00
44148;BME280;29810;55.848;37.368;2023-06-24T00:24:07;98462.03;;;16.14;100.00
44148;BME280;29810;55.848;37.368;2023-06-24T00:27:10;98444.16;;;16.06;100.00
44148;BME280;29810;55.848;37.368;2023-06-24T00:30:12;98447.00;;;16.03;100.00
44148;BME280;29810;55.848;37.368;2023-06-24T00:33:14;98450.09;;;15.97;100.00
44148;BME280;29810;55.848;37.368;2023-06-24T00:36:16;98444.94;;;15.96;100.00
44148;BME280;29810;55.848;37.368;2023-06-24T00:39:17;98448.28;;;15.98;100.00
44148;BME280;29810;55.848;37.368;2023-06-24T00:42:20;98438.44;;;15.88;100.00
44148;BME280;29810;55.848;37.368;2023-06-24T00:45:22;98450.12;;;15.84;100.00
44148;BME280;29810;55.848;37.368;2023-06-24T00:48:24;98463.50;;;15.81;100.00
44148;BME280;29810;55.848;37.368;2023-06-24T00:51:26;98453.13;;;15.78;100.00
44148;BME280;29810;55.848;37.368;2023-06-24T00:54:30;98448.88;;;15.64;100.00
44148;BME280;29810;55.848;37.368;2023-06-24T00:57:34;98442.88;;;15.62;99.95
44148;BME280;29810;55.848;37.368;2023-06-24T01:00:38;98444.22;;;15.68;99.79
44148;BME280;29810;55.848;37.368;2023-06-24T01:03:40;98444.34;;;15.66;99.45
44148;BME280;29810;55.848;37.368;2023-06-24T01:06:42;98453.37;;;15.75;99.01
44148;BME280;29810;55.848;37.368;2023-06-24T01:09:45;98452.50;;;15.74;97.64
44148;BME280;29810;55.848;37.368;2023-06-24T01:12:48;98444.97;;;15.83;97.47
44148;BME280;29810;55.848;37.368;2023-06-24T01:15:50;98450.72;;;16.01;96.55
44148;BME280;29810;55.848;37.368;2023-06-24T01:18:57;98451.81;;;16.10;95.53
44148;BME280;29810;55.848;37.368;2023-06-24T01:32:39;98462.06;;;16.26;94.95
44148;BME280;29810;55.848;37.368;2023-06-24T01:35:47;98458.88;;;16.33;93.06
44148;BME280;29810;55.848;37.368;2023-06-24T01:38:56;98463.03;;;16.25;92.40
44148;BME280;29810;55.848;37.368;2023-06-24T01:42:06;98467.44;;;15.74;92.70
44148;BME280;29810;55.848;37.368;2023-06-24T01:45:13;98460.97;;;15.54;94.73
44148;BME280;29810;55.848;37.368;2023-06-24T01:48:18;98468.81;;;15.67;94.42
44148;BME280;29810;55.848;37.368;2023-06-24T01:51:22;98458.22;;;15.55;93.92
44148;BME280;29810;55.848;37.368;2023-06-24T01:54:26;98464.31;;;15.69;93.44
44148;BME280;29810;55.848;37.368;2023-06-24T01:57:31;98480.41;;;15.51;92.86
44148;BME280;29810;55.848;37.368;2023-06-24T02:00:34;98461.78;;;15.42;93.20
44148;BME280;29810;55.848;37.368;2023-06-24T02:03:37;98450.88;;;15.35;93.04
44148;BME280;29810;55.848;37.368;2023-06-24T02:06:41;98458.22;;;15.30;93.38
44148;BME280;29810;55.848;37.368;2023-06-24T02:09:44;98452.22;;;15.28;93.57
44148;BME280;29810;55.848;37.368;2023-06-24T02:12:48;98456.88;;;15.37;92.96
44148;BME280;29810;55.848;37.368;2023-06-24T02:15:52;98455.72;;;15.41;93.04
44148;BME280;29810;55.848;37.368;2023-06-24T02:18:55;98462.84;;;15.39;93.31
44148;BME280;29810;55.848;37.368;2023-06-24T02:21:59;98464.44;;;15.42;93.31
44148;BME280;29810;55.848;37.368;2023-06-24T02:25:04;98465.81;;;15.34;93.25
44148;BME280;29810;55.848;37.368;2023-06-24T02:28:07;98461.78;;;15.29;93.73
44148;BME280;29810;55.848;37.368;2023-06-24T02:31:10;98473.75;;;15.33;93.45
44148;BME280;29810;55.848;37.368;2023-06-24T02:34:13;98489.09;;;15.26;93.39
44148;BME280;29810;55.848;37.368;2023-06-24T02:37:15;98466.00;;;15.18;93.54
44148;BME280;29810;55.848;37.368;2023-06-24T02:40:18;98477.94;;;14.97;94.61
44148;BME280;29810;55.848;37.368;2023-06-24T02:43:20;98473.53;;;14.97;95.37
44148;BME280;29810;55.848;37.368;2023-06-24T02:46:22;98464.41;;;15.16;94.73
44148;BME280;29810;55.848;37.368;2023-06-24T02:49:26;98474.41;;;15.23;94.09
44148;BME280;29810;55.848;37.368;2023-06-24T02:52:28;98468.94;;;15.27;93.76
44148;BME280;29810;55.848;37.368;2023-06-24T02:55:30;98471.25;;;15.44;93.32
44148;BME280;29810;55.848;37.368;2023-06-24T02:58:34;98477.66;;;15.66;92.51
44148;BME280;29810;55.848;37.368;2023-06-24T03:01:39;98479.22;;;15.68;91.76
44148;BME280;29810;55.848;37.368;2023-06-24T03:04:41;98478.31;;;15.56;91.62
44148;BME280;29810;55.848;37.368;2023-06-24T03:07:44;98474.94;;;15.42;92.44
44148;BME280;29810;55.848;37.368;2023-06-24T03:10:46;98477.97;;;15.35;93.53
44148;BME280;29810;55.848;37.368;2023-06-24T03:13:49;98481.34;;;15.37;93.46
44148;BME280;29810;55.848;37.368;2023-06-24T03:16:52;98470.84;;;15.24;93.90
44148;BME280;29810;55.848;37.368;2023-06-24T03:19:54;98471.34;;;15.17;94.45
44148;BME280;29810;55.848;37.368;2023-06-24T03:22:56;98474.25;;;14.86;95.85
44148;BME280;29810;55.848;37.368;2023-06-24T03:25:58;98484.22;;;14.81;96.55
44148;BME280;29810;55.848;37.368;2023-06-24T03:28:59;98469.66;;;14.90;96.60
44148;BME280;29810;55.848;37.368;2023-06-24T03:32:03;98473.75;;;14.94;95.83
44148;BME280;29810;55.848;37.368;2023-06-24T03:35:05;98486.72;;;14.83;96.24
44148;BME280;29810;55.848;37.368;2023-06-24T03:38:08;98475.91;;;14.74;96.70
44148;BME280;29810;55.848;37.368;2023-06-24T03:41:10;98484.44;;;14.78;96.76
44148;BME280;29810;55.848;37.368;2023-06-24T03:44:13;98475.84;;;14.89;95.90
44148;BME280;29810;55.848;37.368;2023-06-24T03:47:14;98471.38;;;14.77;95.55
44148;BME280;29810;55.848;37.368;2023-06-24T03:50:16;98482.66;;;14.92;95.43
44148;BME280;29810;55.848;37.368;2023-06-24T03:53:18;98481.09;;;15.02;94.91
44148;BME280;29810;55.848;37.368;2023-06-24T03:56:20;98483.22;;;15.10;94.00
44148;BME280;29810;55.848;37.368;2023-06-24T03:59:21;98487.00;;;15.18;93.18
44148;BME280;29810;55.848;37.368;2023-06-24T04:02:23;98466.84;;;15.19;92.86
44148;BME280;29810;55.848;37.368;2023-06-24T04:05:25;98487.66;;;15.35;91.93
44148;BME280;29810;55.848;37.368;2023-06-24T04:08:27;98491.22;;;15.08;92.77
44148;BME280;29810;55.848;37.368;2023-06-24T04:11:32;98504.03;;;15.26;92.23
44148;BME280;29810;55.848;37.368;2023-06-24T04:14:34;98502.88;;;15.30;91.84
44148;BME280;29810;55.848;37.368;2023-06-24T04:17:36;98498.66;;;15.14;91.24
44148;BME280;29810;55.848;37.368;2023-06-24T04:20:37;98493.28;;;15.03;91.74
44148;BME280;29810;55.848;37.368;2023-06-24T04:23:39;98502.72;;;14.93;92.30
44148;BME280;29810;55.848;37.368;2023-06-24T04:26:41;98505.69;;;15.14;91.81
44148;BME280;29810;55.848;37.368;2023-06-24T04:29:43;98496.25;;;15.24;90.31
44148;BME280;29810;55.848;37.368;2023-06-24T04:32:44;98498.44;;;15.30;90.10
44148;BME280;29810;55.848;37.368;2023-06-24T04:35:46;98504.47;;;15.45;89.16
44148;BME280;29810;55.848;37.368;2023-06-24T04:38:48;98512.88;;;15.63;88.26
44148;BME280;29810;55.848;37.368;2023-06-24T04:41:49;98506.97;;;15.60;88.00
44148;BME280;29810;55.848;37.368;2023-06-24T04:44:51;98519.59;;;15.54;88.52
44148;BME280;29810;55.848;37.368;2023-06-24T04:47:52;98520.13;;;15.60;88.05
44148;BME280;29810;55.848;37.368;2023-06-24T04:50:54;98516.84;;;15.69;87.96
44148;BME280;29810;55.848;37.368;2023-06-24T04:53:57;98517.06;;;15.92;87.13
44148;BME280;29810;55.848;37.368;2023-06-24T04:56:59;98526.75;;;15.91;86.38
44148;BME280;29810;55.848;37.368;2023-06-24T05:00:00;98528.03;;;15.85;87.06
44148;BME280;29810;55.848;37.368;2023-06-24T05:03:04;98525.66;;;16.19;86.47
44148;BME280;29810;55.848;37.368;2023-06-24T05:06:06;98531.63;;;16.21;85.05
44148;BME280;29810;55.848;37.368;2023-06-24T05:09:08;98513.34;;;16.07;86.00
44148;BME280;29810;55.848;37.368;2023-06-24T05:12:11;98516.34;;;16.27;85.08
44148;BME280;29810;55.848;37.368;2023-06-24T05:15:13;98521.19;;;16.33;84.84
44148;BME280;29810;55.848;37.368;2023-06-24T05:18:15;98519.12;;;16.12;85.04
44148;BME280;29810;55.848;37.368;2023-06-24T05:21:16;98514.31;;;16.06;85.43
44148;BME280;29810;55.848;37.368;2023-06-24T05:24:18;98529.66;;;16.12;85.60
44148;BME280;29810;55.848;37.368;2023-06-24T05:27:19;98534.09;;;15.99;86.18
44148;BME280;29810;55.848;37.368;2023-06-24T05:30:21;98530.44;;;15.88;86.94
44148;BME280;29810;55.848;37.368;2023-06-24T05:33:22;98532.09;;;16.02;86.60
44148;BME280;29810;55.848;37.368;2023-06-24T05:36:24;98527.28;;;16.33;85.84
44148;BME280;29810;55.848;37.368;2023-06-24T05:39:26;98525.03;;;16.16;85.74
44148;BME280;29810;55.848;37.368;2023-06-24T05:42:27;98529.06;;;15.96;86.69
44148;BME280;29810;55.848;37.368;2023-06-24T05:45:29;98534.94;;;15.99;87.09
44148;BME280;29810;55.848;37.368;2023-06-24T05:48:30;98539.66;;;15.94;87.72
44148;BME280;29810;55.848;37.368;2023-06-24T05:51:32;98531.94;;;16.30;86.60
44148;BME280;29810;55.848;37.368;2023-06-24T05:54:33;98540.94;;;16.38;85.03
44148;BME280;29810;55.848;37.368;2023-06-24T05:57:35;98532.28;;;16.49;84.95
44148;BME280;29810;55.848;37.368;2023-06-24T06:00:36;98535.81;;;16.85;83.71
44148;BME280;29810;55.848;37.368;2023-06-24T06:03:38;98539.53;;;17.07;81.48
44148;BME280;29810;55.848;37.368;2023-06-24T06:06:40;98533.91;;;17.12;80.55
44148;BME280;29810;55.848;37.368;2023-06-24T06:09:42;98535.47;;;16.66;82.24
44148;BME280;29810;55.848;37.368;2023-06-24T06:12:43;98551.94;;;16.19;85.16
44148;BME280;29810;55.848;37.368;2023-06-24T06:15:45;98548.31;;;16.33;85.08
44148;BME280;29810;55.848;37.368;2023-06-24T06:18:47;98550.12;;;16.33;84.28
44148;BME280;29810;55.848;37.368;2023-06-24T06:21:51;98543.16;;;15.82;87.54
44148;BME280;29810;55.848;37.368;2023-06-24T06:24:52;98553.44;;;15.98;87.22
44148;BME280;29810;55.848;37.368;2023-06-24T06:27:54;98560.50;;;15.84;87.74
44148;BME280;29810;55.848;37.368;2023-06-24T06:30:55;98567.94;;;16.03;87.28
44148;BME280;29810;55.848;37.368;2023-06-24T06:33:58;98576.13;;;16.25;86.08
44148;BME280;29810;55.848;37.368;2023-06-24T06:36:59;98574.81;;;15.93;87.50
44148;BME280;29810;55.848;37.368;2023-06-24T06:40:02;98573.72;;;16.09;86.93
44148;BME280;29810;55.848;37.368;2023-06-24T06:43:05;98582.13;;;15.75;88.18
44148;BME280;29810;55.848;37.368;2023-06-24T06:46:06;98585.09;;;15.83;88.28
44148;BME280;29810;55.848;37.368;2023-06-24T06:49:08;98570.69;;;15.89;87.65
44148;BME280;29810;55.848;37.368;2023-06-24T06:52:09;98579.19;;;15.93;87.55
44148;BME280;29810;55.848;37.368;2023-06-24T06:55:11;98568.91;;;15.89;87.54
44148;BME280;29810;55.848;37.368;2023-06-24T06:58:13;98570.69;;;16.02;87.26
44148;BME280;29810;55.848;37.368;2023-06-24T07:01:14;98569.72;;;16.03;87.29
44148;BME280;29810;55.848;37.368;2023-06-24T07:04:16;98575.63;;;16.19;86.38
44148;BME280;29810;55.848;37.368;2023-06-24T07:07:17;98566.97;;;16.17;86.26
44148;BME280;29810;55.848;37.368;2023-06-24T07:10:19;98575.69;;;16.31;85.69
44148;BME280;29810;55.848;37.368;2023-06-24T07:13:20;98571.47;;;16.28;85.62
44148;BME280;29810;55.848;37.368;2023-06-24T07:16:22;98563.81;;;16.62;84.74
44148;BME280;29810;55.848;37.368;2023-06-24T07:19:24;98580.09;;;16.67;83.21
44148;BME280;29810;55.848;37.368;2023-06-24T07:22:25;98574.28;;;16.75;82.44
44148;BME280;29810;55.848;37.368;2023-06-24T07:25:27;98582.34;;;16.61;83.49
44148;BME280;29810;55.848;37.368;2023-06-24T07:28:29;98585.63;;;16.88;82.67
44148;BME280;29810;55.848;37.368;2023-06-24T07:31:31;98584.97;;;16.98;82.15
44148;BME280;29810;55.848;37.368;2023-06-24T07:34:33;98586.69;;;16.86;81.60
44148;BME280;29810;55.848;37.368;2023-06-24T07:37:34;98578.03;;;16.97;81.66
44148;BME280;29810;55.848;37.368;2023-06-24T07:40:37;98588.06;;;16.92;81.55
44148;BME280;29810;55.848;37.368;2023-06-24T07:43:38;98599.47;;;17.03;81.37
44148;BME280;29810;55.848;37.368;2023-06-24T07:46:40;98615.63;;;16.86;81.59
44148;BME280;29810;55.848;37.368;2023-06-24T07:49:41;98607.09;;;16.45;83.83
44148;BME280;29810;55.848;37.368;2023-06-24T07:52:43;98610.19;;;16.39;84.25
44148;BME280;29810;55.848;37.368;2023-06-24T07:55:45;98601.38;;;16.27;85.29
44148;BME280;29810;55.848;37.368;2023-06-24T07:58:47;98606.19;;;16.33;85.27
44148;BME280;29810;55.848;37.368;2023-06-24T08:01:48;98616.28;;;16.39;85.52
44148;BME280;29810;55.848;37.368;2023-06-24T08:04:50;98609.28;;;16.01;86.94
44148;BME280;29810;55.848;37.368;2023-06-24T08:07:52;98612.44;;;16.06;87.60
44148;BME280;29810;55.848;37.368;2023-06-24T08:10:54;98616.09;;;16.30;86.64
44148;BME280;29810;55.848;37.368;2023-06-24T08:13:55;98630.09;;;16.30;86.26
44148;BME280;29810;55.848;37.368;2023-06-24T08:16:57;98602.34;;;16.13;87.21
44148;BME280;29810;55.848;37.368;2023-06-24T08:19:58;98615.69;;;16.10;88.03
44148;BME280;29810;55.848;37.368;2023-06-24T08:23:00;98620.50;;;16.29;88.09
44148;BME280;29810;55.848;37.368;2023-06-24T08:26:02;98612.94;;;16.25;87.83
44148;BME280;29810;55.848;37.368;2023-06-24T08:29:04;98628.09;;;16.34;88.24
44148;BME280;29810;55.848;37.368;2023-06-24T08:32:06;98637.72;;;16.46;87.60
44148;BME280;29810;55.848;37.368;2023-06-24T08:35:08;98656.09;;;16.09;88.74
44148;BME280;29810;55.848;37.368;2023-06-24T08:38:10;98645.03;;;15.91;89.88
44148;BME280;29810;55.848;37.368;2023-06-24T08:41:12;98642.63;;;15.88;91.34
44148;BME280;29810;55.848;37.368;2023-06-24T08:44:14;98639.88;;;15.89;91.58
44148;BME280;29810;55.848;37.368;2023-06-24T08:47:16;98642.41;;;15.91;91.81
44148;BME280;29810;55.848;37.368;2023-06-24T08:50:18;98642.41;;;15.91;91.22
44148;BME280;29810;55.848;37.368;2023-06-24T08:53:21;98657.13;;;15.94;91.38
44148;BME280;29810;55.848;37.368;2023-06-24T08:56:22;98655.31;;;15.94;92.04
44148;BME280;29810;55.848;37.368;2023-06-24T08:59:24;98647.44;;;15.81;92.38
44148;BME280;29810;55.848;37.368;2023-06-24T09:02:27;98654.81;;;16.02;92.41
44148;BME280;29810;55.848;37.368;2023-06-24T09:05:29;98657.56;;;16.13;90.44
44148;BME280;29810;55.848;37.368;2023-06-24T09:08:31;98660.47;;;16.21;90.66
44148;BME280;29810;55.848;37.368;2023-06-24T09:11:33;98667.72;;;16.44;89.53
44148;BME280;29810;55.848;37.368;2023-06-24T09:14:34;98658.59;;;16.49;88.44
44148;BME280;29810;55.848;37.368;2023-06-24T09:17:44;98670.56;;;16.53;88.12
44148;BME280;29810;55.848;37.368;2023-06-24T09:20:47;98668.59;;;16.44;88.39
44148;BME280;29810;55.848;37.368;2023-06-24T09:23:55;98672.69;;;16.35;88.56
44148;BME280;29810;55.848;37.368;2023-06-24T09:26:57;98681.22;;;16.13;89.47
44148;BME280;29810;55.848;37.368;2023-06-24T09:30:16;98685.19;;;16.19;89.10
44148;BME280;29810;55.848;37.368;2023-06-24T09:33:21;98690.34;;;16.46;88.39
44148;BME280;29810;55.848;37.368;2023-06-24T09:36:23;98694.47;;;16.25;88.15
44148;BME280;29810;55.848;37.368;2023-06-24T09:39:26;98694.56;;;16.23;88.33
44148;BME280;29810;55.848;37.368;2023-06-24T09:42:31;98710.56;;;16.20;89.28
44148;BME280;29810;55.848;37.368;2023-06-24T09:45:33;98731.38;;;16.36;89.04
44148;BME280;29810;55.848;37.368;2023-06-24T09:48:35;98710.97;;;16.52;87.88
44148;BME280;29810;55.848;37.368;2023-06-24T09:51:38;98716.12;;;16.41;87.82
44148;BME280;29810;55.848;37.368;2023-06-24T09:54:41;98713.63;;;16.39;88.07
44148;BME280;29810;55.848;37.368;2023-06-24T09:57:49;98724.44;;;16.09;90.52
44148;BME280;29810;55.848;37.368;2023-06-24T10:00:52;98731.56;;;15.94;92.92
44148;BME280;29810;55.848;37.368;2023-06-24T10:03:54;98725.25;;;15.97;93.29
44148;BME280;29810;55.848;37.368;2023-06-24T10:06:55;98741.69;;;16.13;91.44
44148;BME280;29810;55.848;37.368;2023-06-24T10:09:57;98745.88;;;16.03;92.65
44148;BME280;29810;55.848;37.368;2023-06-24T10:12:59;98733.28;;;16.08;92.43
44148;BME280;29810;55.848;37.368;2023-06-24T10:16:01;98740.31;;;15.95;92.39
44148;BME280;29810;55.848;37.368;2023-06-24T10:19:03;98746.81;;;16.02;92.84
44148;BME280;29810;55.848;37.368;2023-06-24T10:22:09;98746.66;;;16.18;92.01
44148;BME280;29810;55.848;37.368;2023-06-24T10:25:13;98753.28;;;16.23;91.48
44148;BME280;29810;55.848;37.368;2023-06-24T10:28:15;98750.13;;;16.31;91.41
44148;BME280;29810;55.848;37.368;2023-06-24T10:31:17;98737.81;;;16.58;88.54
44148;BME280;29810;55.848;37.368;2023-06-24T10:37:24;98751.16;;;16.80;87.11
44148;BME280;29810;55.848;37.368;2023-06-24T10:40:36;98770.12;;;16.47;88.61
44148;BME280;29810;55.848;37.368;2023-06-24T10:43:38;98755.06;;;16.49;88.50
44148;BME280;29810;55.848;37.368;2023-06-24T10:46:40;98756.75;;;16.37;88.91
44148;BME280;29810;55.848;37.368;2023-06-24T10:49:42;98766.13;;;16.41;89.62
44148;BME280;29810;55.848;37.368;2023-06-24T10:52:45;98772.31;;;16.53;88.05
44148;BME280;29810;55.848;37.368;2023-06-24T10:55:47;98782.00;;;16.39;89.32
44148;BME280;29810;55.848;37.368;2023-06-24T10:58:56;98775.38;;;16.34;90.09
44148;BME280;29810;55.848;37.368;2023-06-24T11:01:57;98759.69;;;17.10;86.27
44148;BME280;29810;55.848;37.368;2023-06-24T11:05:01;98772.03;;;17.58;82.56
44148;BME280;29810;55.848;37.368;2023-06-24T11:08:05;98737.53;;;18.09;79.57
44148;BME280;29810;55.848;37.368;2023-06-24T11:11:07;98753.94;;;18.60;77.15
44148;BME280;29810;55.848;37.368;2023-06-24T11:14:09;98721.03;;;18.41;76.36
44148;BME280;29810;55.848;37.368;2023-06-24T11:17:11;98763.94;;;18.20;77.50
44148;BME280;29810;55.848;37.368;2023-06-24T11:20:13;98765.06;;;17.69;79.56
44148;BME280;29810;55.848;37.368;2023-06-24T11:23:15;98768.94;;;17.52;80.97
44148;BME280;29810;55.848;37.368;2023-06-24T11:26:17;98783.56;;;17.07;83.16
44148;BME280;29810;55.848;37.368;2023-06-24T11:29:19;98773.28;;;16.91;83.68
44148;BME280;29810;55.848;37.368;2023-06-24T11:32:21;98777.19;;;16.98;84.26
44148;BME280;29810;55.848;37.368;2023-06-24T11:35:23;98795.16;;;17.04;84.58
44148;BME280;29810;55.848;37.368;2023-06-24T11:38:25;98795.59;;;17.11;84.30
44148;BME280;29810;55.848;37.368;2023-06-24T11:41:33;98786.66;;;17.13;84.35
44148;BME280;29810;55.848;37.368;2023-06-24T11:44:35;98799.22;;;17.71;82.27
44148;BME280;29810;55.848;37.368;2023-06-24T11:47:38;98790.88;;;17.88;80.50
44148;BME280;29810;55.848;37.368;2023-06-24T11:50:40;98790.03;;;18.12;79.60
44148;BME280;29810;55.848;37.368;2023-06-24T11:53:43;98794.44;;;18.47;77.16
44148;BME280;29810;55.848;37.368;2023-06-24T11:56:51;98792.94;;;18.79;75.84
44148;BME280;29810;55.848;37.368;2023-06-24T11:59:55;98807.75;;;19.04;73.90
44148;BME280;29810;55.848;37.368;2023-06-24T12:02:58;98795.94;;;19.31;70.87
44148;BME280;29810;55.848;37.368;2023-06-24T12:06:01;98800.22;;;19.43;70.88
44148;BME280;29810;55.848;37.368;2023-06-24T12:09:02;98780.13;;;19.08;71.31
44148;BME280;29810;55.848;37.368;2023-06-24T12:12:04;98799.56;;;18.84;72.30
44148;BME280;29810;55.848;37.368;2023-06-24T12:15:07;98800.31;;;18.40;73.67
44148;BME280;29810;55.848;37.368;2023-06-24T12:18:10;98799.34;;;17.94;75.33
44148;BME280;29810;55.848;37.368;2023-06-24T12:21:13;98805.88;;;17.64;76.77
44148;BME280;29810;55.848;37.368;2023-06-24T12:24:14;98797.28;;;17.73;76.34
44148;BME280;29810;55.848;37.368;2023-06-24T12:27:16;98821.91;;;17.85;75.61
44148;BME280;29810;55.848;37.368;2023-06-24T12:30:18;98828.34;;;17.81;74.96
44148;BME280;29810;55.848;37.368;2023-06-24T12:33:19;98823.06;;;17.69;76.06
44148;BME280;29810;55.848;37.368;2023-06-24T12:36:24;98823.12;;;17.68;76.29
44148;BME280;29810;55.848;37.368;2023-06-24T12:39:25;98817.69;;;17.82;76.18
44148;BME280;29810;55.848;37.368;2023-06-24T12:42:27;98818.56;;;17.83;76.07
44148;BME280;29810;55.848;37.368;2023-06-24T12:45:29;98834.75;;;17.90;75.85
44148;BME280;29810;55.848;37.368;2023-06-24T12:48:30;98810.06;;;18.62;74.05
44148;BME280;29810;55.848;37.368;2023-06-24T12:51:33;98807.38;;;19.09;71.40
44148;BME280;29810;55.848;37.368;2023-06-24T12:54:35;98819.28;;;19.03;70.51
44148;BME280;29810;55.848;37.368;2023-06-24T12:57:36;98813.03;;;19.04;70.37
44148;BME280;29810;55.848;37.368;2023-06-24T13:00:41;98810.16;;;19.18;69.39
44148;BME280;29810;55.848;37.368;2023-06-24T13:03:42;98816.28;;;18.96;69.88
44148;BME280;29810;55.848;37.368;2023-06-24T13:06:46;98823.75;;;18.67;70.51
44148;BME280;29810;55.848;37.368;2023-06-24T13:09:47;98821.16;;;18.31;71.76
44148;BME280;29810;55.848;37.368;2023-06-24T13:12:49;98825.41;;;18.10;73.09
44148;BME280;29810;55.848;37.368;2023-06-24T13:15:50;98828.75;;;17.87;74.14
44148;BME280;29810;55.848;37.368;2023-06-24T13:18:52;98832.91;;;17.79;74.83
44148;BME280;29810;55.848;37.368;2023-06-24T13:21:54;98841.53;;;17.81;75.22
44148;BME280;29810;55.848;37.368;2023-06-24T13:24:55;98851.78;;;17.85;75.21
44148;BME280;29810;55.848;37.368;2023-06-24T13:27:57;98837.69;;;17.98;74.03
44148;BME280;29810;55.848;37.368;2023-06-24T13:31:00;98836.63;;;18.25;72.45
44148;BME280;29810;55.848;37.368;2023-06-24T13:34:01;98840.25;;;18.82;71.02
44148;BME280;29810;55.848;37.368;2023-06-24T13:37:03;98838.19;;;18.85;69.97
44148;BME280;29810;55.848;37.368;2023-06-24T13:40:05;98840.38;;;18.92;70.30
44148;BME280;29810;55.848;37.368;2023-06-24T13:43:07;98844.97;;;19.12;68.55
44148;BME280;29810;55.848;37.368;2023-06-24T13:46:11;98821.16;;;19.24;67.67
44148;BME280;29810;55.848;37.368;2023-06-24T13:49:13;98830.91;;;19.34;67.68
44148;BME280;29810;55.848;37.368;2023-06-24T13:52:14;98829.56;;;19.29;67.25
44148;BME280;29810;55.848;37.368;2023-06-24T13:55:16;98829.84;;;19.03;68.09
44148;BME280;29810;55.848;37.368;2023-06-24T13:58:18;98825.59;;;19.46;67.28
44148;BME280;29810;55.848;37.368;2023-06-24T14:01:21;98833.34;;;19.70;66.22
44148;BME280;29810;55.848;37.368;2023-06-24T14:04:23;98842.56;;;19.98;65.28
44148;BME280;29810;55.848;37.368;2023-06-24T14:07:25;98836.03;;;20.14;64.46
44148;BME280;29810;55.848;37.368;2023-06-24T14:10:26;98832.12;;;19.74;64.92
44148;BME280;29810;55.848;37.368;2023-06-24T14:13:28;98835.37;;;19.78;65.23
44148;BME280;29810;55.848;37.368;2023-06-24T14:16:31;98833.00;;;19.63;65.21
44148;BME280;29810;55.848;37.368;2023-06-24T14:19:33;98830.44;;;19.73;65.50
44148;BME280;29810;55.848;37.368;2023-06-24T14:22:34;98845.84;;;19.79;63.88
44148;BME280;29810;55.848;37.368;2023-06-24T14:25:36;98835.75;;;19.73;63.37
44148;BME280;29810;55.848;37.368;2023-06-24T14:28:38;98828.88;;;19.93;63.97
44148;BME280;29810;55.848;37.368;2023-06-24T14:31:40;98840.56;;;19.68;63.37
44148;BME280;29810;55.848;37.368;2023-06-24T14:34:42;98822.59;;;19.50;63.60
44148;BME280;29810;55.848;37.368;2023-06-24T14:37:44;98829.56;;;19.51;63.15
44148;BME280;29810;55.848;37.368;2023-06-24T14:40:48;98814.50;;;19.75;61.49
44148;BME280;29810;55.848;37.368;2023-06-24T14:43:50;98815.03;;;20.01;60.87
44148;BME280;29810;55.848;37.368;2023-06-24T14:46:51;98822.22;;;20.31;60.12
44148;BME280;29810;55.848;37.368;2023-06-24T14:49:53;98822.78;;;20.56;59.93
44148;BME280;29810;55.848;37.368;2023-06-24T14:52:54;98829.03;;;20.13;60.09
44148;BME280;29810;55.848;37.368;2023-06-24T14:55:56;98835.37;;;19.89;60.41
44148;BME280;29810;55.848;37.368;2023-06-24T14:58:58;98831.66;;;19.69;61.85
44148;BME280;29810;55.848;37.368;2023-06-24T15:02:00;98825.22;;;19.39;62.36
44148;BME280;29810;55.848;37.368;2023-06-24T15:05:02;98837.00;;;19.58;62.27
44148;BME280;29810;55.848;37.368;2023-06-24T15:08:06;98830.03;;;19.34;63.00
44148;BME280;29810;55.848;37.368;2023-06-24T15:11:07;98827.37;;;19.57;62.46
44148;BME280;29810;55.848;37.368;2023-06-24T15:14:09;98848.03;;;19.85;60.90
44148;BME280;29810;55.848;37.368;2023-06-24T15:17:11;98834.31;;;19.92;60.33
44148;BME280;29810;55.848;37.368;2023-06-24T15:20:12;98833.69;;;19.77;60.37
44148;BME280;29810;55.848;37.368;2023-06-24T15:23:14;98845.13;;;19.77;59.71
44148;BME280;29810;55.848;37.368;2023-06-24T15:26:15;98849.69;;;19.75;60.10
44148;BME280;29810;55.848;37.368;2023-06-24T15:29:17;98846.22;;;19.75;59.97
44148;BME280;29810;55.848;37.368;2023-06-24T15:32:18;98841.50;;;19.90;58.65
44148;BME280;29810;55.848;37.368;2023-06-24T15:35:20;98844.34;;;19.98;58.37
44148;BME280;29810;55.848;37.368;2023-06-24T15:38:21;98841.84;;;19.96;58.71
44148;BME280;29810;55.848;37.368;2023-06-24T15:41:23;98830.72;;;19.81;58.85
44148;BME280;29810;55.848;37.368;2023-06-24T15:44:26;98843.56;;;19.75;59.29
44148;BME280;29810;55.848;37.368;2023-06-24T15:47:28;98834.03;;;19.40;59.81
44148;BME280;29810;55.848;37.368;2023-06-24T15:50:29;98844.00;;;19.36;60.58
44148;BME280;29810;55.848;37.368;2023-06-24T15:53:31;98838.00;;;19.11;60.11
44148;BME280;29810;55.848;37.368;2023-06-24T15:56:33;98851.22;;;19.11;61.56
44148;BME280;29810;55.848;37.368;2023-06-24T15:59:34;98849.25;;;18.91;62.21
44148;BME280;29810;55.848;37.368;2023-06-24T16:02:36;98847.78;;;18.86;62.69
44148;BME280;29810;55.848;37.368;2023-06-24T16:05:38;98862.12;;;19.07;62.30
44148;BME280;29810;55.848;37.368;2023-06-24T16:08:40;98866.31;;;19.09;62.18